Time;durP1;ratioP1;P1;durP2;ratioP2;P2;SDS_P1;SDS_P2;PMS_P1;PMS_P2;Temp;Humidity;BMP_temperature;BMP_pressure;BME280_temperature;BME280_humidity;BME280_pressure;Samples;Min_cycle;Max_cycle;Signal;HPM_P1;HPM_P2
2023/09/23 00:00:25;;;;;;;6.13;5.53;;;15.60;1.00;;;;;;5111215;28;20473;-80
2023/09/23 00:02:53;;;;;;;7.10;5.73;;;15.70;1.00;;;;;;5109367;28;21177;-81
2023/09/23 00:05:29;;;;;;;6.23;5.50;;;15.70;1.00;;;;;;5093783;27;20461;-80
2023/09/23 00:07:59;;;;;;;5.90;5.27;;;15.70;1.00;;;;;;5112188;27;20484;-80
2023/09/23 00:10:27;;;;;;;6.17;5.67;;;15.70;1.00;;;;;;5110839;27;20576;-80
2023/09/23 00:12:55;;;;;;;6.00;5.50;;;15.60;1.00;;;;;;5108004;27;20822;-81
2023/09/23 00:15:26;;;;;;;7.50;5.53;;;15.60;1.00;;;;;;5107723;27;20560;-79
2023/09/23 00:17:55;;;;;;;5.67;5.17;;;15.60;1.00;;;;;;5107860;27;20503;-81
2023/09/23 00:20:22;;;;;;;6.20;5.00;;;15.60;1.00;;;;;;5109512;28;20469;-81
2023/09/23 00:22:50;;;;;;;5.40;4.90;;;15.60;1.00;;;;;;5108760;28;20450;-80
2023/09/23 00:25:18;;;;;;;5.97;5.47;;;15.60;1.00;;;;;;5103780;27;20530;-81
2023/09/23 00:27:45;;;;;;;6.87;5.10;;;15.50;1.00;;;;;;5105248;28;20473;-80
2023/09/23 00:30:14;;;;;;;5.80;5.30;;;15.50;1.00;;;;;;5104431;27;20466;-80
2023/09/23 00:32:44;;;;;;;6.13;5.63;;;15.50;1.00;;;;;;5105093;28;20461;-81
2023/09/23 00:35:12;;;;;;;5.57;4.90;;;15.40;1.00;;;;;;5107872;27;20833;-79
2023/09/23 00:37:40;;;;;;;6.60;5.50;;;15.40;1.00;;;;;;5104894;27;20469;-80
2023/09/23 00:40:27;;;;;;;5.90;5.30;;;15.40;1.00;;;;;;5105816;27;20551;-81
2023/09/23 00:42:57;;;;;;;4.83;4.43;;;15.40;1.00;;;;;;5105654;27;20960;-81
2023/09/23 00:45:25;;;;;;;6.33;5.57;;;15.40;1.00;;;;;;5109292;27;20500;-81
2023/09/23 00:47:57;;;;;;;5.73;4.63;;;15.30;1.00;;;;;;5106006;27;20918;-80
2023/09/23 00:50:25;;;;;;;5.20;4.80;;;15.30;1.00;;;;;;5106645;27;20500;-81
2023/09/23 00:52:53;;;;;;;5.37;4.87;;;15.20;1.00;;;;;;5108495;27;21044;-80
2023/09/23 00:55:20;;;;;;;6.63;5.43;;;15.30;1.00;;;;;;5107817;27;20487;-80
2023/09/23 00:57:49;;;;;;;4.93;4.43;;;15.30;1.00;;;;;;5105288;27;20464;-81
2023/09/23 01:00:24;;;;;;;5.27;4.70;;;15.30;1.00;;;;;;5106150;27;20496;-79
2023/09/23 01:02:56;;;;;;;5.07;4.60;;;15.30;1.00;;;;;;5105989;27;20754;-80
2023/09/23 01:05:27;;;;;;;5.03;4.63;;;15.30;1.00;;;;;;5108760;27;21168;-81
2023/09/23 01:07:56;;;;;;;8.37;5.17;;;15.30;1.00;;;;;;5108970;27;20506;-81
2023/09/23 01:10:24;;;;;;;5.50;4.80;;;15.40;1.00;;;;;;5113307;27;20538;-80
2023/09/23 01:12:51;;;;;;;5.10;4.60;;;15.30;1.00;;;;;;5107854;28;20462;-82
2023/09/23 01:15:20;;;;;;;5.40;4.90;;;15.40;1.00;;;;;;5109941;28;20464;-80
2023/09/23 01:17:49;;;;;;;4.87;4.47;;;15.40;1.00;;;;;;5108363;27;20453;-80
2023/09/23 01:20:18;;;;;;;5.40;4.73;;;15.30;1.00;;;;;;5108945;27;20439;-80
2023/09/23 01:22:47;;;;;;;4.73;4.33;;;15.30;1.00;;;;;;5112145;28;20901;-81
2023/09/23 01:25:14;;;;;;;5.07;4.67;;;15.30;1.00;;;;;;5095760;28;20512;-80
2023/09/23 01:27:42;;;;;;;7.73;5.20;;;15.30;1.00;;;;;;5108961;27;20468;-82
2023/09/23 01:30:12;;;;;;;4.93;4.30;;;15.30;1.00;;;;;;5108325;28;21056;-81
2023/09/23 01:32:47;;;;;;;5.47;4.87;;;15.30;1.00;;;;;;5109416;27;20461;-80
2023/09/23 01:35:16;;;;;;;5.20;4.60;;;15.30;1.00;;;;;;5107515;28;20460;-81
2023/09/23 01:37:44;;;;;;;5.07;4.67;;;15.20;1.00;;;;;;5094524;27;21129;-80
2023/09/23 01:40:17;;;;;;;12.50;11.23;;;15.10;1.00;;;;;;5108285;27;20501;-80
2023/09/23 01:42:48;;;;;;;5.60;4.83;;;15.00;1.00;;;;;;5106967;27;20946;-81
2023/09/23 01:45:16;;;;;;;5.13;4.10;;;15.00;1.00;;;;;;5109756;28;20464;-82
2023/09/23 01:47:44;;;;;;;4.73;4.33;;;15.00;1.00;;;;;;5108194;28;20472;-79
2023/09/23 01:50:11;;;;;;;4.87;4.47;;;15.00;1.00;;;;;;5110172;27;20531;-81
2023/09/23 01:52:41;;;;;;;4.07;3.77;;;15.00;1.00;;;;;;5108146;27;20548;-82
2023/09/23 01:55:11;;;;;;;6.23;4.57;;;15.00;1.00;;;;;;5109816;28;20497;-80
2023/09/23 01:57:40;;;;;;;4.60;4.20;;;15.00;1.00;;;;;;5097074;27;20468;-80
2023/09/23 02:00:11;;;;;;;5.37;4.87;;;15.00;1.00;;;;;;5088196;28;20542;-80
2023/09/23 02:02:40;;;;;;;5.00;4.50;;;15.00;1.00;;;;;;5091331;28;21039;-81
2023/09/23 02:05:13;;;;;;;4.53;4.10;;;15.10;1.00;;;;;;5113110;28;21247;-81
2023/09/23 02:07:41;;;;;;;3.40;3.20;;;15.10;1.00;;;;;;5116051;27;21123;-84
2023/09/23 02:10:15;;;;;;;6.40;5.07;;;15.10;1.00;;;;;;5115904;27;20516;-84
2023/09/23 02:12:44;;;;;;;4.40;3.60;;;15.10;1.00;;;;;;5117367;27;20466;-82
2023/09/23 02:15:15;;;;;;;5.77;4.10;;;15.10;1.00;;;;;;5103774;27;20464;-81
2023/09/23 02:17:42;;;;;;;5.73;4.13;;;15.10;1.00;;;;;;5115906;27;20453;-84
2023/09/23 02:20:17;;;;;;;4.37;3.97;;;15.10;1.00;;;;;;5114946;27;20476;-84
2023/09/23 02:22:46;;;;;;;5.87;4.50;;;15.00;1.00;;;;;;5113916;27;20938;-83
2023/09/23 02:25:13;;;;;;;3.87;3.57;;;15.00;1.00;;;;;;5113161;27;20456;-83
2023/09/23 02:27:44;;;;;;;4.33;3.93;;;14.90;1.00;;;;;;5114591;28;20966;-82
2023/09/23 02:30:13;;;;;;;4.10;3.80;;;14.80;1.00;;;;;;5116839;28;20449;-83
2023/09/23 02:32:41;;;;;;;7.00;4.63;;;14.90;1.00;;;;;;5105592;28;20528;-81
2023/09/23 02:35:12;;;;;;;4.73;4.33;;;14.80;1.00;;;;;;5112694;28;21397;-83
2023/09/23 02:37:41;;;;;;;4.37;3.97;;;14.80;1.00;;;;;;5119121;27;20478;-83
2023/09/23 02:40:12;;;;;;;5.30;4.60;;;14.70;1.00;;;;;;5116844;27;20490;-81
2023/09/23 02:42:42;;;;;;;4.00;3.60;;;14.70;1.00;;;;;;5122982;28;20439;-84
2023/09/23 02:45:12;;;;;;;4.10;3.50;;;14.70;1.00;;;;;;5105634;27;20420;-84
2023/09/23 02:47:41;;;;;;;4.60;4.20;;;14.60;1.00;;;;;;5118922;27;20453;-83
2023/09/23 02:50:13;;;;;;;4.07;3.77;;;14.60;1.00;;;;;;5120060;27;20553;-85
2023/09/23 02:52:44;;;;;;;4.07;3.77;;;14.60;1.00;;;;;;5109669;27;20461;-81
2023/09/23 02:55:14;;;;;;;5.47;4.10;;;14.60;1.00;;;;;;5112961;27;20471;-81
2023/09/23 02:57:46;;;;;;;4.20;3.83;;;14.50;1.00;;;;;;5108775;28;20421;-82
2023/09/23 03:00:17;;;;;;;4.50;4.10;;;14.50;1.00;;;;;;5118429;27;20425;-84
2023/09/23 03:02:46;;;;;;;4.43;3.90;;;14.50;1.00;;;;;;5120218;28;20535;-84
2023/09/23 03:05:17;;;;;;;5.30;4.03;;;14.50;1.00;;;;;;5121040;27;20527;-82
2023/09/23 03:07:47;;;;;;;3.70;3.40;;;14.50;1.00;;;;;;5118604;27;20459;-81
2023/09/23 03:10:19;;;;;;;4.47;3.67;;;14.50;1.00;;;;;;5105978;27;20472;-84
2023/09/23 03:13:02;;;;;;;4.83;4.00;;;14.40;1.00;;;;;;5119259;27;20489;-82
2023/09/23 03:15:39;;;;;;;3.50;3.20;;;14.40;1.00;;;;;;5106137;27;20445;-81
2023/09/23 03:18:06;;;;;;;4.50;3.47;;;14.30;1.00;;;;;;5111874;27;20539;-82
2023/09/23 03:20:36;;;;;;;4.00;3.70;;;14.40;1.00;;;;;;5114824;27;20466;-80
2023/09/23 03:23:10;;;;;;;3.50;3.20;;;14.40;1.00;;;;;;5110132;28;20449;-82
2023/09/23 03:25:44;;;;;;;3.33;3.10;;;14.40;1.00;;;;;;5110959;27;20472;-82
2023/09/23 03:28:11;;;;;;;3.20;2.90;;;14.40;1.00;;;;;;5111998;28;20468;-82
2023/09/23 03:30:39;;;;;;;3.00;2.70;;;14.40;1.00;;;;;;5111384;28;20483;-81
2023/09/23 03:33:08;;;;;;;2.87;2.67;;;14.40;1.00;;;;;;5110163;28;20460;-82
2023/09/23 03:35:36;;;;;;;3.07;2.70;;;14.40;1.00;;;;;;5110657;27;20990;-82
2023/09/23 03:38:05;;;;;;;3.00;2.70;;;14.40;1.00;;;;;;5114688;27;20453;-81
2023/09/23 03:40:32;;;;;;;2.80;2.60;;;14.50;1.00;;;;;;5113238;28;20675;-80
2023/09/23 03:43:01;;;;;;;2.90;2.70;;;14.40;1.00;;;;;;5113888;27;20449;-81
2023/09/23 03:45:28;;;;;;;3.60;2.80;;;14.40;1.00;;;;;;5112867;27;20464;-82
2023/09/23 03:47:57;;;;;;;3.00;2.80;;;14.40;1.00;;;;;;5112137;27;20444;-81
2023/09/23 03:50:24;;;;;;;3.50;2.37;;;14.40;1.00;;;;;;5091678;28;21323;-82
2023/09/23 03:52:51;;;;;;;2.40;2.20;;;14.40;1.00;;;;;;5112205;28;20523;-81
2023/09/23 03:55:18;;;;;;;3.23;2.27;;;14.50;1.00;;;;;;5109692;27;20544;-81
2023/09/23 03:57:46;;;;;;;2.63;2.43;;;14.40;1.00;;;;;;5108700;28;20824;-80
2023/09/23 04:00:16;;;;;;;3.40;3.10;;;14.50;1.00;;;;;;5110577;27;20453;-81
2023/09/23 04:02:44;;;;;;;3.47;2.43;;;14.50;1.00;;;;;;5107136;27;20445;-81
2023/09/23 04:05:14;;;;;;;2.93;2.40;;;14.50;1.00;;;;;;5107238;28;20453;-81
2023/09/23 04:07:41;;;;;;;2.50;2.30;;;14.50;1.00;;;;;;5110175;27;21200;-80
2023/09/23 04:10:10;;;;;;;2.43;2.23;;;14.50;1.00;;;;;;5113182;28;20463;-84
2023/09/23 04:12:38;;;;;;;3.10;1.97;;;14.50;1.00;;;;;;5110465;27;20452;-82
2023/09/23 04:15:08;;;;;;;2.77;2.10;;;14.40;1.00;;;;;;5112274;28;20461;-79
2023/09/23 04:17:36;;;;;;;4.30;2.60;;;14.40;1.00;;;;;;5108622;27;21030;-81
2023/09/23 04:20:09;;;;;;;2.90;2.27;;;14.50;1.00;;;;;;5092629;28;20564;-81
2023/09/23 04:22:41;;;;;;;2.47;1.90;;;14.50;1.00;;;;;;5111690;28;20474;-81
2023/09/23 04:25:10;;;;;;;2.00;1.73;;;14.50;1.00;;;;;;5111331;28;20892;-79
2023/09/23 04:27:39;;;;;;;5.80;2.43;;;14.50;1.00;;;;;;5111547;28;20553;-82
2023/09/23 04:30:09;;;;;;;3.33;2.40;;;14.50;1.00;;;;;;5110248;28;20543;-80
2023/09/23 04:32:36;;;;;;;2.43;1.80;;;14.50;1.00;;;;;;5109079;27;20467;-80
2023/09/23 04:35:04;;;;;;;3.23;1.63;;;14.40;1.00;;;;;;5113396;28;20517;-81
2023/09/23 04:37:37;;;;;;;2.00;1.90;;;14.40;1.00;;;;;;5113616;27;20572;-81
2023/09/23 04:40:09;;;;;;;4.00;2.53;;;14.40;1.00;;;;;;5109575;27;20520;-81
2023/09/23 04:42:37;;;;;;;3.07;2.30;;;14.40;1.00;;;;;;5109463;28;20468;-81
2023/09/23 04:45:06;;;;;;;4.20;1.97;;;14.40;1.00;;;;;;5109739;28;20588;-81
2023/09/23 04:47:33;;;;;;;2.20;1.73;;;14.40;1.00;;;;;;5111474;28;21069;-80
2023/09/23 04:50:01;;;;;;;2.00;1.70;;;14.30;1.00;;;;;;5093486;28;20477;-78
2023/09/23 04:52:28;;;;;;;2.70;1.97;;;14.30;1.00;;;;;;5111056;28;20435;-79
2023/09/23 04:54:57;;;;;;;2.40;1.83;;;14.30;1.00;;;;;;5111347;28;20531;-81
2023/09/23 04:57:26;;;;;;;2.17;1.97;;;14.30;1.00;;;;;;5092235;28;20468;-83
2023/09/23 04:59:57;;;;;;;2.47;1.97;;;14.30;1.00;;;;;;5109792;27;20456;-80
2023/09/23 05:02:27;;;;;;;2.57;2.10;;;14.30;1.00;;;;;;5111615;27;21255;-81
2023/09/23 05:04:54;;;;;;;2.17;1.70;;;14.20;1.00;;;;;;5108896;28;20429;-81
2023/09/23 05:07:21;;;;;;;3.97;3.67;;;14.30;1.00;;;;;;5109335;27;20480;-81
2023/09/23 05:09:49;;;;;;;5.30;2.20;;;14.20;1.00;;;;;;5108897;27;20571;-80
2023/09/23 05:12:20;;;;;;;2.43;1.80;;;14.20;1.00;;;;;;5111669;28;21303;-80
2023/09/23 05:14:49;;;;;;;2.40;1.43;;;14.20;1.00;;;;;;5110911;27;20456;-82
2023/09/23 05:17:18;;;;;;;4.20;1.73;;;14.20;1.00;;;;;;5110206;27;20613;-80
2023/09/23 05:19:46;;;;;;;3.00;2.80;;;14.10;1.00;;;;;;5111158;28;20546;-82
2023/09/23 05:22:14;;;;;;;2.07;1.80;;;14.20;1.00;;;;;;5111483;28;21188;-81
2023/09/23 05:24:47;;;;;;;2.00;1.80;;;14.20;1.00;;;;;;5081977;28;20470;-81
2023/09/23 05:27:14;;;;;;;2.63;2.27;;;14.10;1.00;;;;;;5101837;28;20475;-81
2023/09/23 05:29:50;;;;;;;2.17;1.97;;;14.10;1.00;;;;;;5109739;28;20472;-81
2023/09/23 05:32:20;;;;;;;3.77;1.90;;;14.10;1.00;;;;;;5108793;28;20455;-81
2023/09/23 05:34:51;;;;;;;2.10;1.80;;;14.10;1.00;;;;;;5093758;28;20454;-81
2023/09/23 05:37:18;;;;;;;3.73;2.07;;;14.10;1.00;;;;;;5108676;27;20471;-81
2023/09/23 05:39:45;;;;;;;2.43;2.10;;;14.10;1.00;;;;;;5109776;27;20561;-81
2023/09/23 05:42:15;;;;;;;2.30;2.10;;;14.10;1.00;;;;;;5108487;27;20466;-81
2023/09/23 05:44:43;;;;;;;2.80;1.80;;;14.10;1.00;;;;;;5110741;27;21046;-81
2023/09/23 05:47:11;;;;;;;1.80;1.70;;;14.10;1.00;;;;;;5112357;28;20471;-81
2023/09/23 05:49:42;;;;;;;4.30;1.97;;;14.10;1.00;;;;;;5112421;28;20668;-80
2023/09/23 05:52:10;;;;;;;2.47;2.00;;;14.10;1.00;;;;;;5111518;27;20498;-80
2023/09/23 05:54:37;;;;;;;3.40;2.27;;;14.10;1.00;;;;;;5106493;28;20468;-81
2023/09/23 05:57:05;;;;;;;2.47;1.83;;;14.10;1.00;;;;;;5111831;28;20495;-80
2023/09/23 05:59:33;;;;;;;1.97;1.77;;;14.10;1.00;;;;;;5106525;27;22116;-81
2023/09/23 06:01:59;;;;;;;1.70;1.60;;;14.20;1.00;;;;;;5105691;27;20546;-81
2023/09/23 06:04:27;;;;;;;1.80;1.70;;;14.20;1.00;;;;;;5107956;27;20451;-80
2023/09/23 06:06:56;;;;;;;2.10;1.90;;;14.10;1.00;;;;;;5109304;27;20451;-81
2023/09/23 06:09:23;;;;;;;2.03;1.63;;;14.20;1.00;;;;;;5109970;27;20551;-80
2023/09/23 06:11:51;;;;;;;3.13;2.00;;;14.10;1.00;;;;;;5106615;27;20525;-83
2023/09/23 06:14:18;;;;;;;2.77;2.10;;;14.20;1.00;;;;;;5090333;28;20529;-79
2023/09/23 06:16:45;;;;;;;2.47;1.17;;;14.30;1.00;;;;;;5111728;28;20789;-81
2023/09/23 06:19:12;;;;;;;4.57;1.90;;;14.30;1.00;;;;;;5110812;27;21335;-81
2023/09/23 06:21:39;;;;;;;2.07;1.50;;;14.30;1.00;;;;;;5111244;27;21063;-80
2023/09/23 06:24:11;;;;;;;2.00;1.30;;;14.30;1.00;;;;;;5113375;28;20470;-81
2023/09/23 06:26:39;;;;;;;3.03;1.70;;;14.40;1.00;;;;;;5107443;27;20459;-80
2023/09/23 06:29:06;;;;;;;3.37;1.67;;;14.40;1.00;;;;;;5111027;27;20473;-81
2023/09/23 06:31:34;;;;;;;3.37;1.97;;;14.50;1.00;;;;;;5090790;27;20444;-81
2023/09/23 06:34:01;;;;;;;2.83;1.40;;;14.40;1.00;;;;;;5113603;28;20632;-79
2023/09/23 06:36:28;;;;;;;3.10;1.30;;;14.40;1.00;;;;;;5109138;28;20475;-81
2023/09/23 06:38:55;;;;;;;1.60;1.37;;;14.40;1.00;;;;;;5111161;27;20973;-80
2023/09/23 06:41:23;;;;;;;1.93;1.20;;;14.50;1.00;;;;;;5111745;28;20561;-79
2023/09/23 06:43:52;;;;;;;1.53;1.30;;;14.50;1.00;;;;;;5107672;28;20572;-80
2023/09/23 06:46:19;;;;;;;1.63;1.40;;;14.50;1.00;;;;;;5113686;28;20960;-81
2023/09/23 06:48:46;;;;;;;1.13;1.03;;;14.50;1.00;;;;;;5110851;27;20528;-81
2023/09/23 06:51:14;;;;;;;1.97;1.17;;;14.50;1.00;;;;;;5106473;28;20527;-79
2023/09/23 06:53:44;;;;;;;2.33;1.50;;;14.50;1.00;;;;;;5111094;28;20593;-81
2023/09/23 06:56:11;;;;;;;3.13;1.20;;;14.60;1.00;;;;;;5111263;28;20494;-81
2023/09/23 06:58:39;;;;;;;1.50;1.23;;;14.60;1.00;;;;;;5111012;27;21145;-81
2023/09/23 07:01:06;;;;;;;2.63;1.53;;;14.70;1.00;;;;;;5112897;27;20502;-81
2023/09/23 07:03:33;;;;;;;4.27;1.23;;;14.80;1.00;;;;;;5108342;27;20558;-80
2023/09/23 07:06:00;;;;;;;1.50;1.20;;;14.90;1.00;;;;;;5114757;27;21229;-82
2023/09/23 07:08:27;;;;;;;1.63;1.13;;;15.00;1.00;;;;;;5112760;27;20499;-82
2023/09/23 07:10:55;;;;;;;1.63;1.50;;;15.10;1.00;;;;;;5112696;27;20493;-81
2023/09/23 07:13:22;;;;;;;3.33;1.60;;;15.30;1.00;;;;;;5111633;27;20437;-80
2023/09/23 07:15:51;;;;;;;2.50;1.60;;;15.50;1.00;;;;;;5114060;27;21674;-79
2023/09/23 07:18:19;;;;;;;1.50;1.37;;;15.70;1.00;;;;;;5110502;27;20474;-82
2023/09/23 07:20:46;;;;;;;2.27;1.47;;;15.80;1.00;;;;;;5113995;27;20448;-81
2023/09/23 07:23:13;;;;;;;2.67;1.87;;;15.90;1.00;;;;;;5112654;27;20456;-81
2023/09/23 07:25:42;;;;;;;2.10;0.93;;;15.90;1.00;;;;;;5095358;28;20543;-79
2023/09/23 07:28:10;;;;;;;5.23;1.10;;;15.80;1.00;;;;;;5109384;27;20481;-80
2023/09/23 07:30:38;;;;;;;1.30;1.20;;;15.90;1.00;;;;;;5109409;27;20545;-81
2023/09/23 07:33:06;;;;;;;1.80;1.10;;;16.00;1.00;;;;;;5111844;27;20980;-81
2023/09/23 07:35:36;;;;;;;2.73;0.90;;;16.00;1.00;;;;;;5110666;28;20557;-81
2023/09/23 07:38:04;;;;;;;1.83;1.10;;;16.00;1.00;;;;;;5108824;27;20474;-80
2023/09/23 07:40:31;;;;;;;1.70;1.27;;;16.00;1.00;;;;;;5112895;27;20549;-81
2023/09/23 07:42:59;;;;;;;1.30;1.03;;;16.00;1.00;;;;;;5095113;27;20468;-80
2023/09/23 07:45:26;;;;;;;5.50;1.17;;;16.10;1.00;;;;;;5114814;28;20452;-82
2023/09/23 07:47:53;;;;;;;1.40;1.10;;;16.20;1.00;;;;;;5110204;27;20468;-81
2023/09/23 07:50:23;;;;;;;2.73;0.90;;;16.20;1.00;;;;;;5111384;27;20456;-78
2023/09/23 07:52:50;;;;;;;2.23;1.20;;;16.30;1.00;;;;;;5112464;27;20461;-79
2023/09/23 07:55:17;;;;;;;2.23;1.07;;;16.50;1.00;;;;;;5111678;27;20474;-81
2023/09/23 07:57:44;;;;;;;1.80;1.00;;;16.50;1.00;;;;;;5105803;27;20486;-80
2023/09/23 08:00:12;;;;;;;2.20;0.90;;;16.60;1.00;;;;;;5109739;27;20473;-80
2023/09/23 08:02:39;;;;;;;6.90;6.20;;;16.70;1.00;;;;;;5106403;27;20937;-80
2023/09/23 08:05:08;;;;;;;1.50;1.10;;;16.80;1.00;;;;;;5110329;27;20504;-80
2023/09/23 08:07:38;;;;;;;2.90;1.20;;;16.90;1.00;;;;;;5114635;27;20484;-84
2023/09/23 08:10:08;;;;;;;1.63;0.83;;;16.80;1.00;;;;;;5106543;27;20865;-82
2023/09/23 08:12:35;;;;;;;1.13;1.03;;;16.80;1.00;;;;;;5113973;27;20462;-83
2023/09/23 08:15:05;;;;;;;4.40;1.23;;;16.70;1.00;;;;;;5115814;27;20434;-81
2023/09/23 08:17:32;;;;;;;2.20;1.23;;;16.70;1.00;;;;;;5117778;27;20484;-84
2023/09/23 08:20:14;;;;;;;1.73;1.27;;;16.80;1.00;;;;;;5119859;27;20476;-83
2023/09/23 08:22:42;;;;;;;1.87;0.93;;;16.70;1.00;;;;;;5119916;27;20496;-79
2023/09/23 08:25:10;;;;;;;1.93;0.90;;;16.90;1.00;;;;;;5122267;27;20454;-85
2023/09/23 08:27:38;;;;;;;2.20;1.30;;;17.20;1.00;;;;;;5121026;27;20481;-84
2023/09/23 08:30:07;;;;;;;2.53;1.30;;;17.40;1.00;;;;;;5118393;27;20457;-82
2023/09/23 08:32:34;;;;;;;1.73;1.23;;;17.40;1.00;;;;;;5120338;27;20450;-85
2023/09/23 08:35:01;;;;;;;2.30;1.50;;;17.50;1.00;;;;;;5121930;27;20458;-81
2023/09/23 08:37:28;;;;;;;1.57;1.40;;;17.70;1.00;;;;;;5118225;27;20419;-88
2023/09/23 08:39:56;;;;;;;1.73;1.20;;;17.90;1.00;;;;;;5120906;27;20446;-85
2023/09/23 08:42:25;;;;;;;2.20;1.50;;;17.90;1.00;;;;;;5120840;27;20406;-82
2023/09/23 08:44:53;;;;;;;1.57;1.10;;;18.00;1.00;;;;;;5117801;27;20481;-80
2023/09/23 08:47:24;;;;;;;1.70;1.00;;;18.00;1.00;;;;;;5124373;27;21395;-82
2023/09/23 08:49:54;;;;;;;3.23;1.77;;;18.10;1.00;;;;;;5121128;27;20422;-84
2023/09/23 08:52:26;;;;;;;3.80;2.17;;;18.30;1.00;;;;;;5122079;27;20486;-83
2023/09/23 08:54:53;;;;;;;1.77;1.67;;;18.50;1.00;;;;;;5121527;27;20456;-84
2023/09/23 08:57:22;;;;;;;1.80;1.63;;;18.70;1.00;;;;;;5121829;27;20446;-82
2023/09/23 08:59:49;;;;;;;1.57;1.10;;;19.00;1.00;;;;;;5118616;28;20462;-84
2023/09/23 09:02:20;;;;;;;1.60;1.50;;;19.10;1.00;;;;;;5120712;27;20465;-84
2023/09/23 09:04:47;;;;;;;2.23;1.63;;;18.90;1.00;;;;;;5122573;27;20446;-83
2023/09/23 09:07:17;;;;;;;2.00;1.00;;;18.70;1.00;;;;;;5125476;27;20492;-83
2023/09/23 09:09:44;;;;;;;1.10;0.80;;;18.60;1.00;;;;;;5106153;27;20425;-81
2023/09/23 09:12:11;;;;;;;4.73;1.40;;;18.50;1.00;;;;;;5121250;27;20508;-82
2023/09/23 09:14:41;;;;;;;1.00;0.90;;;18.60;1.00;;;;;;5121471;27;20426;-80
2023/09/23 09:17:09;;;;;;;3.00;1.37;;;18.60;1.00;;;;;;5122600;27;20540;-84
2023/09/23 09:19:39;;;;;;;1.07;0.97;;;18.40;1.00;;;;;;5120347;28;20489;-82
2023/09/23 09:22:07;;;;;;;2.53;1.07;;;18.30;1.00;;;;;;5100735;28;20501;-84
2023/09/23 09:24:34;;;;;;;2.27;1.30;;;18.40;1.00;;;;;;5123893;27;20407;-85
2023/09/23 09:27:01;;;;;;;1.87;1.20;;;18.80;1.00;;;;;;5115339;27;20545;-78
2023/09/23 09:29:29;;;;;;;1.63;1.53;;;19.60;1.00;;;;;;5112401;27;20459;-78
2023/09/23 09:32:01;;;;;;;2.00;1.50;;;21.50;1.00;;;;;;5093214;28;20480;-79
2023/09/23 09:34:32;;;;;;;1.40;1.10;;;23.40;1.00;;;;;;5111549;28;20971;-79
2023/09/23 09:37:00;;;;;;;1.90;1.80;;;24.50;1.00;;;;;;5107245;28;20534;-79
2023/09/23 09:39:30;;;;;;;1.20;1.10;;;25.10;1.00;;;;;;5113224;27;20485;-79
2023/09/23 09:41:59;;;;;;;1.40;1.30;;;25.70;1.00;;;;;;5110032;28;20469;-79
2023/09/23 09:44:29;;;;;;;1.83;1.30;;;24.60;1.00;;;;;;5109629;27;20512;-78
2023/09/23 09:47:00;;;;;;;1.87;1.77;;;23.20;1.00;;;;;;5111194;27;20464;-78
2023/09/23 09:49:30;;;;;;;1.60;1.50;;;22.50;1.00;;;;;;5109220;27;20476;-79
2023/09/23 09:51:57;;;;;;;1.20;1.10;;;21.70;1.00;;;;;;5114549;28;20451;-78
2023/09/23 09:54:26;;;;;;;2.40;1.80;;;20.80;1.00;;;;;;5104690;27;20562;-77
2023/09/23 09:56:55;;;;;;;5.40;1.37;;;20.50;1.00;;;;;;5106767;27;20499;-80
2023/09/23 09:59:26;;;;;;;1.60;1.50;;;20.10;1.00;;;;;;5092325;28;21005;-79
2023/09/23 10:01:58;;;;;;;1.70;1.60;;;19.70;1.00;;;;;;5105960;27;20559;-77
2023/09/23 10:04:33;;;;;;;1.37;1.27;;;19.50;1.00;;;;;;5109370;27;20454;-79
2023/09/23 10:07:01;;;;;;;1.50;1.40;;;19.60;1.00;;;;;;5109867;27;20574;-80
2023/09/23 10:09:32;;;;;;;1.67;1.57;;;19.80;1.00;;;;;;5091743;27;20456;-79
2023/09/23 10:11:59;;;;;;;1.57;1.47;;;20.60;1.00;;;;;;5108357;27;20476;-78
2023/09/23 10:14:27;;;;;;;2.73;2.47;;;21.40;1.00;;;;;;5108986;28;20450;-78
2023/09/23 10:17:04;;;;;;;1.87;1.77;;;21.50;1.00;;;;;;5109506;27;20470;-80
2023/09/23 10:19:41;;;;;;;2.10;1.80;;;20.90;1.00;;;;;;5109425;27;20473;-78
2023/09/23 10:22:13;;;;;;;1.83;1.73;;;20.20;1.00;;;;;;5091257;27;20560;-79
2023/09/23 10:24:41;;;;;;;4.50;4.10;;;19.90;1.00;;;;;;5109932;28;20440;-79
2023/09/23 10:27:11;;;;;;;4.07;2.80;;;19.90;1.00;;;;;;5109004;27;20525;-80
2023/09/23 10:29:47;;;;;;;2.50;2.30;;;21.80;1.00;;;;;;5106749;27;20465;-79
2023/09/23 10:32:18;;;;;;;2.93;2.17;;;23.40;1.00;;;;;;5110124;27;20485;-80
2023/09/23 10:34:48;;;;;;;2.40;2.20;;;23.40;1.00;;;;;;5089509;27;20463;-80
2023/09/23 10:37:25;;;;;;;2.10;1.93;;;22.90;1.00;;;;;;5107474;27;20554;-79
2023/09/23 10:39:52;;;;;;;2.63;2.40;;;23.00;1.00;;;;;;5111911;27;20784;-81
2023/09/23 10:42:20;;;;;;;3.57;3.00;;;23.60;1.00;;;;;;5107708;27;20457;-79
2023/09/23 10:44:50;;;;;;;2.60;2.40;;;23.40;1.00;;;;;;5109606;27;20433;-81
2023/09/23 10:47:21;;;;;;;2.93;2.40;;;22.60;1.00;;;;;;5109775;27;20484;-80
2023/09/23 10:49:49;;;;;;;2.20;2.00;;;21.90;1.00;;;;;;5090554;28;20460;-81
2023/09/23 10:52:20;;;;;;;2.80;2.37;;;21.50;1.00;;;;;;5107952;27;20465;-78
2023/09/23 10:54:50;;;;;;;2.17;1.97;;;21.40;1.00;;;;;;5109795;27;20616;-80
2023/09/23 10:57:20;;;;;;;2.43;2.23;;;21.30;1.00;;;;;;5111288;27;20465;-80
2023/09/23 10:59:48;;;;;;;2.80;2.60;;;21.50;1.00;;;;;;5113838;27;20471;-81
2023/09/23 11:02:17;;;;;;;2.23;2.13;;;23.10;1.00;;;;;;5113313;27;20517;-80
2023/09/23 11:04:54;;;;;;;2.97;2.77;;;25.10;1.00;;;;;;5116465;27;20456;-80
2023/09/23 11:07:22;;;;;;;2.07;1.87;;;25.40;1.00;;;;;;5115923;27;20557;-81
2023/09/23 11:09:50;;;;;;;2.50;1.87;;;27.10;1.00;;;;;;5115038;27;20453;-78
2023/09/23 11:12:27;;;;;;;1.83;1.70;;;28.00;1.00;;;;;;5095383;27;20488;-79
2023/09/23 11:14:55;;;;;;;1.40;1.30;;;29.30;1.00;;;;;;5113673;27;20460;-79
2023/09/23 11:17:31;;;;;;;2.23;1.90;;;30.00;1.00;;;;;;5099762;27;20444;-80
2023/09/23 11:20:13;;;;;;;2.03;1.93;;;28.50;1.00;;;;;;5110672;27;20446;-79
2023/09/23 11:22:50;;;;;;;2.10;2.00;;;26.30;1.00;;;;;;5112848;27;20455;-79
2023/09/23 11:25:22;;;;;;;4.47;2.07;;;24.40;1.00;;;;;;5112702;28;20464;-79
2023/09/23 11:27:51;;;;;;;2.40;1.83;;;23.00;1.00;;;;;;5113769;28;20671;-79
2023/09/23 11:30:19;;;;;;;2.70;2.17;;;22.30;1.00;;;;;;5112698;27;20508;-80
2023/09/23 11:32:51;;;;;;;2.13;1.70;;;21.70;1.00;;;;;;5096444;28;20427;-79
2023/09/23 11:35:23;;;;;;;2.30;2.10;;;21.40;1.00;;;;;;5095166;28;20414;-79
2023/09/23 11:37:54;;;;;;;1.80;1.70;;;21.10;1.00;;;;;;5111133;27;20431;-82
2023/09/23 11:40:23;;;;;;;2.30;1.90;;;22.00;1.00;;;;;;5087406;28;20476;-84
2023/09/23 11:42:51;;;;;;;2.17;1.97;;;22.50;1.00;;;;;;5118779;27;20440;-85
2023/09/23 11:45:20;;;;;;;1.40;1.17;;;23.70;1.00;;;;;;5116274;27;20472;-84
2023/09/23 11:47:48;;;;;;;3.10;2.10;;;26.30;1.00;;;;;;5117289;27;20536;-84
2023/09/23 11:50:18;;;;;;;1.47;1.37;;;27.70;1.00;;;;;;5116836;27;20472;-85
2023/09/23 11:52:47;;;;;;;2.93;1.20;;;28.60;1.00;;;;;;5115840;27;20435;-84
2023/09/23 11:55:27;;;;;;;1.13;1.03;;;30.20;1.00;;;;;;5117024;27;20483;-85
2023/09/23 11:57:55;;;;;;;2.10;1.90;;;32.40;1.00;;;;;;5122244;27;20429;-84
2023/09/23 12:00:22;;;;;;;2.30;1.57;;;32.30;1.00;;;;;;5107903;27;20435;-85
2023/09/23 12:02:49;;;;;;;6.50;5.27;;;29.70;1.00;;;;;;5111637;27;20467;-83
2023/09/23 12:05:17;;;;;;;1.77;1.57;;;27.40;1.00;;;;;;5117852;27;20526;-83
2023/09/23 12:07:46;;;;;;;2.00;1.10;;;25.70;1.00;;;;;;5117270;27;20485;-85
2023/09/23 12:10:14;;;;;;;3.20;2.33;;;24.20;1.00;;;;;;5121425;27;20505;-84
2023/09/23 12:12:42;;;;;;;3.03;1.57;;;23.10;1.00;;;;;;5120750;27;20432;-83
2023/09/23 12:15:10;;;;;;;2.70;1.47;;;22.50;1.00;;;;;;5096197;28;20470;-84
2023/09/23 12:17:38;;;;;;;2.77;1.40;;;22.70;1.00;;;;;;5116219;28;21300;-82
2023/09/23 12:20:11;;;;;;;1.30;1.20;;;22.90;1.00;;;;;;5116874;27;20456;-83
2023/09/23 12:22:38;;;;;;;1.63;1.53;;;22.50;1.00;;;;;;5097381;28;20550;-84
2023/09/23 12:25:10;;;;;;;1.70;1.20;;;21.60;1.00;;;;;;5119304;27;21211;-84
2023/09/23 12:27:39;;;;;;;1.40;1.10;;;21.10;1.00;;;;;;5110381;27;20429;-83
2023/09/23 12:30:08;;;;;;;1.20;1.10;;;20.90;1.00;;;;;;5113613;27;20446;-82
2023/09/23 12:32:35;;;;;;;1.93;1.00;;;21.90;1.00;;;;;;5111356;28;20492;-83
2023/09/23 12:35:05;;;;;;;1.63;1.50;;;23.80;1.00;;;;;;5118202;27;20456;-83
2023/09/23 12:37:33;;;;;;;1.50;1.30;;;24.00;1.00;;;;;;5116251;28;20957;-84
2023/09/23 12:40:04;;;;;;;1.50;1.40;;;23.50;1.00;;;;;;5117303;28;20431;-82
2023/09/23 12:42:33;;;;;;;1.40;1.00;;;22.70;1.00;;;;;;5092896;28;20471;-83
2023/09/23 12:45:00;;;;;;;1.90;1.20;;;21.80;1.00;;;;;;5119327;28;20514;-82
2023/09/23 12:47:27;;;;;;;1.10;1.00;;;21.30;1.00;;;;;;5114152;27;21076;-83
2023/09/23 12:49:54;;;;;;;1.57;1.13;;;20.90;1.00;;;;;;5112390;27;20456;-84
2023/09/23 12:52:21;;;;;;;2.03;1.30;;;20.70;1.00;;;;;;5114702;27;21246;-83
2023/09/23 12:54:51;;;;;;;3.90;1.90;;;20.50;1.00;;;;;;5115719;27;20479;-83
2023/09/23 12:57:18;;;;;;;3.17;2.23;;;20.40;1.00;;;;;;5112122;27;20479;-83
2023/09/23 12:59:49;;;;;;;2.13;1.00;;;20.20;1.00;;;;;;5111054;27;20490;-85
2023/09/23 13:02:16;;;;;;;1.27;1.17;;;20.00;1.00;;;;;;5116899;27;20436;-86
2023/09/23 13:04:47;;;;;;;1.40;1.30;;;19.90;1.00;;;;;;5119546;27;20443;-87
2023/09/23 13:07:17;;;;;;;2.13;1.53;;;19.70;1.00;;;;;;5113087;27;20505;-84